Météo Nord-Pas-de-Calais   La météo au plus près de chez vous

Station météorologique

Observations météo à Chastreix (63098)

63098001 1385 m Dernier relevé à 11:00
14.1°C
Humidité 70 % Vent 3.6 km/h

Journée consultée

Mardi 1 Septembre 2026

Synthèse de la journée

Périodes de référence en UTC

Température maximale

14.1°C

à 11:00

06h 06h

Température minimale

9.3°C

à 08:00

18h 18h

Rafale maximale

10 km/h

à 07:54

00h 00h

Précipitations

0 mm

Cumul quotidien

06h 06h

Ensoleillement

2h 50 mins

Durée quotidienne

00h 00h

Graphiques de la journée

Heure locale Réduire

Données détaillées

Relevés météo

Pas de 6 minutes Afficher les relevés infra-horaires
Relevés météo détaillés à Chastreix pour le Mardi 1 Septembre 2026
Heure Température °C Point de rosée °C Humidité % Vent moyen (raf.), km/h Précipitations mm Hauteur neige cm Ensoleillement min Rayonnement global W/m²
11:00 14.1 °C 8.1 °C 67 % 4 km/h (9 km/h) 0 mm0 mm 0 cm 6 min 221.1 W/m²
10:54 13.7 °C 8.1 °C 69 % 5 km/h (9 km/h) 0 mm0 mm 0 cm 6 min 220.5 W/m²
10:48 13.8 °C 8.2 °C 69 % 5 km/h (9 km/h) 0 mm0 mm 0 cm 6 min 217.8 W/m²
10:42 14 °C 8.4 °C 69 % 3 km/h (9 km/h) 0 mm0 mm 0 cm 6 min 210.1 W/m²
10:36 13.6 °C 7.1 °C 65 % 3 km/h (6 km/h) 0 mm0 mm 0 cm 6 min 200 W/m²
10:30 13.4 °C 7.4 °C 67 % 3 km/h (6 km/h) 0 mm0 mm 0 cm 6 min 187.3 W/m²
10:24 13.5 °C 7.5 °C 67 % 4 km/h (7 km/h) 0 mm0 mm 0 cm 6 min 184.5 W/m²
10:18 13.3 °C 6.9 °C 65 % 4 km/h (7 km/h) 0 mm0 mm 0 cm 6 min 187.9 W/m²
10:12 13.3 °C 6.4 °C 63 % 3 km/h (7 km/h) 0 mm0 mm 0 cm 6 min 184.6 W/m²
10:06 13.2 °C 7 °C 66 % 3 km/h (7 km/h) 0 mm0 mm 0 cm 6 min 191.1 W/m²
10:00 13.3 °C 7.9 °C 70 % 4 km/h (7 km/h) 0 mm0 mm 0 cm 6 min 178.7 W/m²
09:54 13.5 °C 8.3 °C 71 % 2 km/h (5 km/h) 0 mm0 mm 0 cm 6 min 170.6 W/m²
09:48 13.4 °C 8.2 °C 71 % 2 km/h (5 km/h) 0 mm0 mm 0 cm 6 min 159.9 W/m²
09:42 13.6 °C 8.8 °C 73 % 2 km/h (4 km/h) 0 mm0 mm 0 cm 6 min 151.6 W/m²
09:36 13.1 °C 8.4 °C 73 % 2 km/h (5 km/h) 0 mm0 mm 0 cm 6 min 143.3 W/m²
09:30 12.7 °C 8 °C 73 % 3 km/h (6 km/h) 0 mm0 mm 0 cm 6 min 135.1 W/m²
09:24 12.9 °C 8.4 °C 74 % 3 km/h (6 km/h) 0 mm0 mm 0 cm 6 min 129 W/m²
09:18 12.7 °C 8.8 °C 77 % 2 km/h (5 km/h) 0 mm0 mm 0 cm 6 min 121.7 W/m²
09:12 12.7 °C 8.6 °C 76 % 2 km/h (4 km/h) 0 mm0 mm 0 cm 6 min 114.1 W/m²
09:06 12.7 °C 9 °C 78 % 3 km/h (6 km/h) 0 mm0 mm 0 cm 6 min 105.9 W/m²
09:00 12.2 °C 8.8 °C 80 % 4 km/h (6 km/h) 0 mm0 mm 0 cm 6 min 99.7 W/m²
08:54 11.9 °C 9.1 °C 83 % 5 km/h (7 km/h) 0 mm0 mm 0 cm 6 min 92.5 W/m²
08:48 11.5 °C 8.5 °C 82 % 4 km/h (7 km/h) 0 mm0 mm 0 cm 6 min 84.8 W/m²
08:42 11.4 °C 8.4 °C 82 % 3 km/h (5 km/h) 0 mm0 mm 0 cm 6 min 77.3 W/m²
08:36 11 °C 8.2 °C 83 % 3 km/h (5 km/h) 0 mm0 mm 0 cm 6 min 69.5 W/m²
08:30 10.8 °C 8.2 °C 84 % 4 km/h (7 km/h) 0 mm0 mm 0 cm 6 min 59.2 W/m²
08:24 10.4 °C 7.8 °C 84 % 5 km/h (7 km/h) 0 mm0 mm 0 cm 6 min 57 W/m²
08:18 10.3 °C 7.9 °C 85 % 4 km/h (7 km/h) 0 mm0 mm 0 cm 6 min 50.8 W/m²
08:12 9.9 °C 7.7 °C 86 % 3 km/h (5 km/h) 0 mm0 mm 0 cm 2 min 20.8 W/m²
08:06 9.7 °C 7.3 °C 85 % 4 km/h (7 km/h) 0 mm0 mm 0 cm 0 min 10 W/m²
08:00 9.7 °C 7.3 °C 85 % 6 km/h (10 km/h) 0 mm0 mm 0 cm 0 min 8.8 W/m²
07:54 9.5 °C 7.1 °C 85 % 8 km/h (10 km/h) 0 mm0 mm 0 cm 0 min 7.7 W/m²
07:48 9.4 °C 6.8 °C 84 % 7 km/h (10 km/h) 0 mm0 mm 0 cm 0 min 6.5 W/m²
07:42 9.7 °C 7.3 °C 85 % 6 km/h (9 km/h) 0 mm0 mm 0 cm 0 min 5.4 W/m²
07:36 9.7 °C 7.1 °C 84 % 4 km/h (7 km/h) 0 mm0 mm 0 cm 0 min 3.9 W/m²
07:30 9.7 °C 7.3 °C 85 % 2 km/h (6 km/h) 0 mm0 mm 0 cm 0 min 0.1 W/m²
07:24 9.7 °C 7.5 °C 86 % 2 km/h (6 km/h) 0 mm0 mm 0 cm 0 min 0 W/m²
07:18 9.7 °C 7.5 °C 86 % 2 km/h (5 km/h) 0 mm0 mm 0 cm 0 min 0 W/m²
07:12 9.4 °C 7 °C 85 % 3 km/h (6 km/h) 0 mm0 mm 0 cm 0 min 0 W/m²
07:06 9.4 °C 7 °C 85 % 3 km/h (6 km/h) 0 mm0 mm 0 cm 0 min 0 W/m²
07:00 9.5 °C 6.9 °C 84 % 4 km/h (7 km/h) 0 mm0 mm 0 cm 0 min 0 W/m²
06:54 9.6 °C 7 °C 84 % 4 km/h (7 km/h) 0 mm0 mm 0 cm 0 min 0 W/m²
06:48 9.5 °C 6.9 °C 84 % 3 km/h (6 km/h) 0 mm0 mm 0 cm 0 min 0 W/m²
06:42 9.8 °C 7.4 °C 85 % 3 km/h (6 km/h) 0 mm0 mm 0 cm 0 min 0 W/m²
06:36 9.6 °C 6.9 °C 83 % 4 km/h (7 km/h) 0 mm0 mm 0 cm 0 min 0 W/m²
06:30 9.8 °C 7.2 °C 84 % 3 km/h (7 km/h) 0 mm0 mm 0 cm 0 min 0 W/m²
06:24 9.7 °C 7.1 °C 84 % 0 km/h (4 km/h) 0 mm0 mm 0 cm 0 min 0 W/m²
06:18 9.6 °C 6.9 °C 83 % 2 km/h (5 km/h) 0 mm0 mm 0 cm 0 min 0 W/m²
06:12 9.8 °C 6.9 °C 82 % 3 km/h (6 km/h) 0 mm0 mm 0 cm 0 min 0 W/m²
06:06 9.8 °C 6.9 °C 82 % 3 km/h (7 km/h) 0 mm0 mm 0 cm 0 min 0 W/m²
06:00 9.9 °C 6.8 °C 81 % 3 km/h (5 km/h) 0 mm0 mm 0 cm 0 min 0 W/m²
05:54 10.1 °C 7 °C 81 % 4 km/h (5 km/h) 0 mm0 mm 0 cm 0 min 0 W/m²
05:48 10.1 °C 6.8 °C 80 % 4 km/h (5 km/h) 0 mm0 mm 0 cm 0 min 0 W/m²
05:42 10 °C 6.5 °C 79 % 4 km/h (5 km/h) 0 mm0 mm 0 cm 0 min 0 W/m²
05:36 10.2 °C 6.7 °C 79 % 4 km/h (6 km/h) 0 mm0 mm 0 cm 0 min 0 W/m²
05:30 10.2 °C 6.7 °C 79 % 5 km/h (7 km/h) 0 mm0 mm 0 cm 0 min 0 W/m²
05:24 10.4 °C 6.9 °C 79 % 5 km/h (7 km/h) 0 mm0 mm 0 cm 0 min 0 W/m²
05:18 10.4 °C 6.9 °C 79 % 5 km/h (7 km/h) 0 mm0 mm 0 cm 0 min 0 W/m²
05:12 10.3 °C 6.8 °C 79 % 5 km/h (7 km/h) 0 mm0 mm 0 cm 0 min 0 W/m²
05:06 10.3 °C 6.6 °C 78 % 4 km/h (6 km/h) 0 mm0 mm 0 cm 0 min 0 W/m²
05:00 10.4 °C 6.9 °C 79 % 3 km/h (6 km/h) 0 mm0 mm 0 cm 0 min 0 W/m²
04:54 10.4 °C 6.9 °C 79 % 3 km/h (6 km/h) 0 mm0 mm 0 cm 0 min 0 W/m²
04:48 10.4 °C 7.1 °C 80 % 3 km/h (5 km/h) 0 mm0 mm 0 cm 0 min 0 W/m²
04:42 10.4 °C 7.1 °C 80 % 3 km/h (5 km/h) 0 mm0 mm 0 cm 0 min 0 W/m²
04:36 10.4 °C 7.1 °C 80 % 3 km/h (6 km/h) 0 mm0 mm 0 cm 0 min 0 W/m²
04:30 10.4 °C 7.3 °C 81 % 4 km/h (6 km/h) 0 mm0 mm 0 cm 0 min 0 W/m²
04:24 10.3 °C 7.2 °C 81 % 3 km/h (5 km/h) 0 mm0 mm 0 cm 0 min 0 W/m²
04:18 10 °C 6.9 °C 81 % 3 km/h (6 km/h) 0 mm0 mm 0 cm 0 min 0 W/m²
04:12 9.8 °C 6.3 °C 79 % 5 km/h (8 km/h) 0 mm0 mm 0 cm 0 min 0 W/m²
04:06 9.8 °C 6.1 °C 78 % 5 km/h (8 km/h) 0 mm0 mm 0 cm 0 min 0 W/m²
04:00 10.2 °C 6.7 °C 79 % 5 km/h (8 km/h) 0 mm0 mm 0 cm 0 min 0 W/m²
03:54 10.3 °C 6.8 °C 79 % 5 km/h (8 km/h) 0 mm0 mm 0 cm 0 min 0 W/m²
03:48 9.5 °C 5.7 °C 77 % 5 km/h (8 km/h) 0 mm0 mm 0 cm 0 min 0 W/m²
03:42 10.3 °C 6.4 °C 77 % 4 km/h (8 km/h) 0 mm0 mm 0 cm 0 min 0 W/m²
03:36 10.2 °C 6.3 °C 77 % 5 km/h (9 km/h) 0 mm0 mm 0 cm 0 min 0 W/m²
03:30 10.5 °C 6.8 °C 78 % 6 km/h (9 km/h) 0 mm0 mm 0 cm 0 min 0 W/m²
03:24 10.7 °C 6.8 °C 77 % 6 km/h (9 km/h) 0 mm0 mm 0 cm 0 min 0 W/m²
03:18 10.7 °C 7 °C 78 % 5 km/h (7 km/h) 0 mm0 mm 0 cm 0 min 0 W/m²
03:12 10.8 °C 7.1 °C 78 % 4 km/h (7 km/h) 0 mm0 mm 0 cm 0 min 0 W/m²
03:06 10.4 °C 6.7 °C 78 % 4 km/h (6 km/h) 0 mm0 mm 0 cm 0 min 0 W/m²
03:00 9.9 °C 5.9 °C 76 % 4 km/h (7 km/h) 0 mm0 mm 0 cm 0 min 0 W/m²
02:54 10.2 °C 6.2 °C 76 % 5 km/h (8 km/h) 0 mm0 mm 0 cm 0 min 0 W/m²
02:48 10.9 °C 6.8 °C 76 % 5 km/h (8 km/h) 0 mm0 mm 0 cm 0 min 0 W/m²
02:42 10.8 °C 6.7 °C 76 % 5 km/h (8 km/h) 0 mm0 mm 0 cm 0 min 0 W/m²
02:36 10.3 °C 6.1 °C 75 % 6 km/h (10 km/h) 0 mm0 mm 0 cm 0 min 0 W/m²
02:30 10.5 °C 6.3 °C 75 % 5 km/h (10 km/h) 0 mm0 mm 0 cm 0 min 0 W/m²
02:24 10.9 °C 6.8 °C 76 % 5 km/h (8 km/h) 0 mm0 mm 0 cm 0 min 0 W/m²
02:18 10.1 °C 5.7 °C 74 % 4 km/h (8 km/h) 0 mm0 mm 0 cm 0 min 0 W/m²
02:12 10.8 °C 6.5 °C 75 % 2 km/h (7 km/h) 0 mm0 mm 0 cm 0 min 0 W/m²
02:06 11.3 °C 7.4 °C 77 % 6 km/h (10 km/h) 0 mm0 mm 0 cm 0 min 0 W/m²
02:00 10.5 °C 7 °C 79 % 6 km/h (10 km/h) 0 mm0 mm 0 cm 0 min 0 W/m²
01:54 9.9 °C 6.6 °C 80 % 8 km/h (14 km/h) 0 mm0 mm 0 min 0 W/m²
01:48 10.8 °C 9.1 °C 89 % 12 km/h (16 km/h) 0 mm0 mm 0 min 0 W/m²
01:42 10.7 °C 9.3 °C 91 % 13 km/h (16 km/h) 0 mm0 mm 0 min 0 W/m²
01:36 10.4 °C 8.8 °C 90 % 13 km/h (16 km/h) 0 mm0 mm 0 min 0 W/m²
01:30 10.5 °C 8.9 °C 90 % 13 km/h (16 km/h) 0 mm0 mm 0 min 0 W/m²
01:24 10.4 °C 8.8 °C 90 % 12 km/h (15 km/h) 0 mm0 mm 0 min 0 W/m²
01:18 10.4 °C 8.8 °C 90 % 11 km/h (14 km/h) 0 mm0 mm 0 min 0 W/m²
01:12 10.7 °C 9.3 °C 91 % 11 km/h (15 km/h) 0 mm0 mm 0 min 0 W/m²
01:06 10.7 °C 9.3 °C 91 % 11 km/h (15 km/h) 0 mm0 mm 0 min 0 W/m²
01:00 10.7 °C 9.5 °C 92 % 11 km/h (14 km/h) 0 mm0 mm 0 min 0 W/m²
00:54 10.7 °C 9.5 °C 92 % 11 km/h (14 km/h) 0 mm0 mm 0 min 0 W/m²
00:48 10.8 °C 9.6 °C 92 % 10 km/h (14 km/h) 0 mm0 mm 0 min 0 W/m²
00:42 10.7 °C 9.5 °C 92 % 10 km/h (14 km/h) 0 mm0 mm 0 min 0 W/m²
00:36 10.6 °C 9.2 °C 91 % 9 km/h (13 km/h) 0 mm0 mm 0 min 0 W/m²
00:30 10.6 °C 9.2 °C 91 % 9 km/h (13 km/h) 0 mm0 mm 0 min 0 W/m²
00:24 10.7 °C 9.1 °C 90 % 9 km/h (12 km/h) 0 mm0 mm 0 min 0 W/m²
00:18 10.6 °C 9 °C 90 % 9 km/h (12 km/h) 0 mm0 mm 0 min 0 W/m²
00:12 10.6 °C 9 °C 90 % 8 km/h (12 km/h) 0 mm0 mm 0 min 0 W/m²
00:06 10.6 °C 9 °C 90 % 9 km/h (13 km/h) 0 mm0 mm 0 min 0 W/m²
00:00 10.6 °C 9 °C 90 % 8 km/h (12 km/h) 0 mm0 mm 0 min 0 W/m²

Données via Météo-France

Relevés météo à Chastreix

Cette page rassemble les observations de la station de Chastreix : température, humidité, vent, précipitations et pression atmosphérique. Les graphiques facilitent le suivi de la journée, tandis que le tableau donne accès aux mesures horaires et infra-horaires disponibles.

Pour replacer ces mesures dans leur contexte, consultez la climatologie de Chastreix ainsi que ses normales et records. Retrouvez aussi la carte des observations météo en temps réel.